Monday, November 19, 2018, 2:35 AM EST
Back to Local

KCJR, Culpeper, Culpeper County Airport

Location: Elkwood, VA, United States Lat: 38.527
Local Time: 2:35 AM EST ( 7:35 GMT) Lon: -77.859
Time Zone: US/Eastern Elev: 311 ft

Show me the last for .
Show Decoded

2018-11-19 02:15 METAR KCJR 190715Z AUTO 00000KT 1 1/4SM BR VV007 02/02 A3015 RMK AO2 T00240017 =
2018-11-19 01:55 METAR KCJR 190655Z AUTO 00000KT 1SM BR VV007 02/02 A3015 RMK AO2 T00240016 =
2018-11-19 01:35 METAR KCJR 190635Z AUTO 00000KT 1 3/4SM BR VV007 03/02 A3016 RMK AO2 T00260019 =
2018-11-19 01:15 METAR KCJR 190615Z AUTO 00000KT 1/2SM FG BKN004 03/02 A3016 RMK AO2 T00250018 =
2018-11-19 00:55 METAR KCJR 190555Z AUTO 00000KT 1 1/2SM BR VV007 03/03 A3017 RMK AO2 T00320025
                 10055 20018 =
2018-11-19 00:35 METAR KCJR 190535Z AUTO 00000KT 2SM BR CLR 03/02 A3018 RMK AO2 T00300023 =
2018-11-19 00:15 METAR KCJR 190515Z AUTO 00000KT 3SM BR CLR 03/03 A3019 RMK AO2 T00320025 =
2018-11-18 23:55 METAR KCJR 190455Z AUTO 00000KT 2 1/2SM BR CLR 03/02 A3018 RMK AO2 T00300024
                 401041022 =
2018-11-18 23:35 METAR KCJR 190435Z AUTO 00000KT 4SM BR CLR 03/02 A3019 RMK AO2 T00310024 =
2018-11-18 23:15 METAR KCJR 190415Z AUTO 00000KT 4SM BR CLR 03/02 A3020 RMK AO2 T00300023 =
2018-11-18 22:55 METAR KCJR 190355Z AUTO 00000KT 2 1/2SM BR CLR 03/02 A3020 RMK AO2 T00250018 =
2018-11-18 22:35 METAR KCJR 190335Z AUTO 00000KT 1 3/4SM BR VV007 02/02 A3020 RMK AO2 T00240017 =
2018-11-18 22:15 METAR KCJR 190315Z AUTO 00000KT 2 1/2SM BR CLR 02/01 A3021 RMK AO2 T00180011 =
2018-11-18 21:55 METAR KCJR 190255Z AUTO 00000KT 2 1/2SM BR CLR 02/02 A3021 RMK AO2 T00230016 =
2018-11-18 21:35 METAR KCJR 190235Z AUTO 00000KT 2 1/2SM BR CLR 02/01 A3021 RMK AO2 T00200013 =
2018-11-18 21:15 METAR KCJR 190215Z AUTO 00000KT 2 1/2SM BR CLR 02/02 A3021 RMK AO2 T00230016 =
2018-11-18 20:55 METAR KCJR 190155Z AUTO 00000KT 3SM BR CLR 03/02 A3022 RMK AO2 T00310023 =
2018-11-18 20:35 METAR KCJR 190135Z AUTO 00000KT 2 1/2SM BR CLR 04/03 A3022 RMK AO2 T00370030 =
2018-11-18 20:15 METAR KCJR 190115Z AUTO 00000KT 5SM BR CLR 04/03 A3022 RMK AO2 T00400033 =
2018-11-18 19:55 METAR KCJR 190055Z AUTO 00000KT 7SM CLR 04/04 A3022 RMK AO2 T00440035 =
2018-11-18 19:35 METAR KCJR 190035Z AUTO 00000KT 7SM CLR 05/04 A3022 RMK AO2 T00500040 =
2018-11-18 19:15 METAR KCJR 190015Z AUTO 00000KT 10SM CLR 05/04 A3022 RMK AO2 T00510039 =
2018-11-18 18:55 METAR KCJR 182355Z AUTO 00000KT 10SM CLR 06/04 A3023 RMK AO2 T00550042 10104
                 20051 =
2018-11-18 18:35 METAR KCJR 182335Z AUTO 00000KT 10SM CLR 05/04 A3023 RMK AO2 T00540042 =
2018-11-18 18:15 METAR KCJR 182315Z AUTO 00000KT 10SM CLR 06/04 A3023 RMK AO2 T00600041 =
2018-11-18 17:55 METAR KCJR 182255Z AUTO 00000KT 10SM CLR 07/04 A3023 RMK AO2 T00660041 =
2018-11-18 17:35 METAR KCJR 182235Z AUTO 00000KT 10SM CLR 07/04 A3023 RMK AO2 T00700041 =
2018-11-18 17:15 METAR KCJR 182215Z AUTO 00000KT 10SM CLR 08/04 A3024 RMK AO2 T00750043 =
2018-11-18 16:55 METAR KCJR 182155Z AUTO 00000KT 10SM CLR 08/04 A3024 RMK AO2 T00810043 =
2018-11-18 16:35 METAR KCJR 182135Z AUTO 00000KT 10SM CLR 09/04 A3024 RMK AO2 T00880044 =
2018-11-18 16:15 METAR KCJR 182115Z AUTO 00000KT 10SM CLR 09/05 A3024 RMK AO2 T00920045 =
2018-11-18 15:55 METAR KCJR 182055Z AUTO 00000KT 10SM CLR 10/04 A3025 RMK AO2 T00970042 =
2018-11-18 15:35 METAR KCJR 182035Z AUTO 00000KT 10SM CLR 10/04 A3025 RMK AO2 T01020044 =
2018-11-18 15:15 METAR KCJR 182015Z AUTO 00000KT 10SM SCT021 10/04 A3025 RMK AO2 T01010044 =
2018-11-18 14:55 METAR KCJR 181955Z AUTO 00000KT 10SM SCT021 10/04 A3026 RMK AO2 T01030041 =
2018-11-18 14:35 METAR KCJR 181935Z AUTO 00000KT 10SM BKN021 10/04 A3026 RMK AO2 T00990041 =
2018-11-18 14:15 METAR KCJR 181915Z AUTO 00000KT 10SM BKN021 10/04 A3027 RMK AO2 T00980043 =
2018-11-18 13:55 METAR KCJR 181855Z AUTO 00000KT 10SM SCT021 SCT027 10/04 A3027 RMK AO2 T00970043
                 =
2018-11-18 13:35 METAR KCJR 181835Z AUTO 00000KT 10SM BKN021 BKN027 09/04 A3028 RMK AO2 T00920042
                 =
2018-11-18 13:15 METAR KCJR 181815Z AUTO 00000KT 10SM OVC021 09/04 A3029 RMK AO2 T00880040 =
2018-11-18 12:55 METAR KCJR 181755Z AUTO 00000KT 10SM OVC021 09/04 A3030 RMK AO2 T00860040 10086
                 21022 =
2018-11-18 12:35 METAR KCJR 181735Z AUTO 00000KT 10SM OVC021 09/04 A3031 RMK AO2 T00850035 =
2018-11-18 12:15 METAR KCJR 181715Z AUTO 00000KT 10SM OVC021 08/03 A3031 RMK AO2 T00810031 =
2018-11-18 11:55 METAR KCJR 181655Z AUTO 00000KT 10SM OVC021 08/03 A3033 RMK AO2 T00750026 =
2018-11-18 11:35 METAR KCJR 181635Z AUTO 00000KT 10SM OVC021 07/03 A3034 RMK AO2 T00710025 =
2018-11-18 11:15 METAR KCJR 181615Z AUTO 00000KT 10SM OVC023 07/02 A3035 RMK AO2 T00650020 =
2018-11-18 10:55 METAR KCJR 181555Z AUTO 00000KT 10SM OVC023 06/01 A3036 RMK AO2 T00600011 =
2018-11-18 10:35 METAR KCJR 181535Z AUTO 00000KT 10SM BKN023 OVC032 06/01 A3037 RMK AO2 T00590011
                 =
2018-11-18 10:15 METAR KCJR 181515Z AUTO 00000KT 10SM SCT025 OVC032 05/01 A3037 RMK AO2 T00530014
                 =
2018-11-18 09:55 METAR KCJR 181455Z AUTO 00000KT 10SM OVC032 04/02 A3038 RMK AO2 T00430015 =
2018-11-18 09:35 METAR KCJR 181435Z AUTO 00000KT 7SM OVC032 03/01 A3038 RMK AO2 T00340012 =
2018-11-18 09:15 METAR KCJR 181415Z AUTO 00000KT 7SM OVC030 03/01 A3038 RMK AO2 T00250009 =
2018-11-18 08:55 METAR KCJR 181355Z AUTO 00000KT 7SM OVC030 02/01 A3038 RMK AO2 T00180007 =
2018-11-18 08:35 METAR KCJR 181335Z AUTO 00000KT 5SM BR OVC030 01/00 A3038 RMK AO2 T00130004 =
2018-11-18 08:15 METAR KCJR 181315Z AUTO 00000KT 5SM BR OVC032 00/00 A3038 RMK AO2 T00041001 =
2018-11-18 07:55 METAR KCJR 181255Z AUTO 00000KT 5SM BR OVC032 00/M01 A3038 RMK AO2 T00001008 =
2018-11-18 07:35 METAR KCJR 181235Z AUTO 00000KT 5SM BR BKN032 M01/M02 A3038 RMK AO2 T10131021 =
2018-11-18 07:15 METAR KCJR 181215Z AUTO 00000KT 5SM BR CLR M02/M03 A3037 RMK AO2 T10201028 =
2018-11-18 06:55 METAR KCJR 181155Z AUTO 00000KT 5SM BR CLR M02/M02 A3037 RMK AO2 T10161023 11003
                 21020 =
2018-11-18 06:35 METAR KCJR 181135Z AUTO 00000KT 5SM BR CLR M01/M02 A3037 RMK AO2 T10151022 =
2018-11-18 06:15 METAR KCJR 181115Z AUTO 00000KT 5SM BR CLR M02/M02 A3037 RMK AO2 T10161024 =
2018-11-18 05:55 METAR KCJR 181055Z AUTO 00000KT 7SM CLR M01/M02 A3037 RMK AO2 T10101019 =
2018-11-18 05:35 METAR KCJR 181035Z AUTO 00000KT 7SM CLR M01/M02 A3036 RMK AO2 T10111019 =
2018-11-18 05:15 METAR KCJR 181015Z AUTO 00000KT 7SM SCT038 M01/M02 A3036 RMK AO2 T10091016 =
2018-11-18 04:55 METAR KCJR 180955Z AUTO 00000KT 7SM BKN038 M01/M02 A3036 RMK AO2 T10101017 =
2018-11-18 04:35 METAR KCJR 180935Z AUTO 00000KT 7SM BKN038 M01/M02 A3035 RMK AO2 T10101017 =
2018-11-18 04:15 METAR KCJR 180915Z AUTO 00000KT 7SM SCT038 M01/M02 A3035 RMK AO2 T10151021 =
2018-11-18 03:55 METAR KCJR 180855Z AUTO 00000KT 5SM BR CLR M01/M02 A3035 RMK AO2 T10151022 =
2018-11-18 03:35 METAR KCJR 180835Z AUTO 00000KT 5SM BR CLR M01/M02 A3035 RMK AO2 T10111018 =
2018-11-18 03:15 METAR KCJR 180815Z AUTO 00000KT 7SM CLR M01/M02 A3035 RMK AO2 T10101017 =
2018-11-18 02:55 METAR KCJR 180755Z AUTO 00000KT 7SM CLR M01/M01 A3035 RMK AO2 T10061014 =

Support USWX by starting your Amazon purchase here.